Time;durP1;ratioP1;P1;durP2;ratioP2;P2;SDS_P1;SDS_P2;PMS_P1;PMS_P2;Temp;Humidity;BMP_temperature;BMP_pressure;BME280_temperature;BME280_humidity;BME280_pressure;Samples;Min_cycle;Max_cycle;Signal;HPM_P1;HPM_P2
2023/12/25 00:00:13;;;;;;;0.13;0.13;;;;;;;;;;4972178;28;20042;-70
2023/12/25 00:02:39;;;;;;;0.00;0.00;;;;;;;;;;4975966;28;20046;-72
2023/12/25 00:05:05;;;;;;;0.20;0.15;;;;;;;;;;4974174;28;20073;-68
2023/12/25 00:07:31;;;;;;;0.15;0.10;;;;;;;;;;4971122;28;20047;-67
2023/12/25 00:09:57;;;;;;;0.00;0.00;;;;;;;;;;4952891;28;20043;-67
2023/12/25 00:12:23;;;;;;;0.40;0.32;;;;;;;;;;4971042;28;20089;-66
2023/12/25 00:14:49;;;;;;;0.32;0.17;;;;;;;;;;4950207;28;20101;-67
2023/12/25 00:17:15;;;;;;;0.00;0.00;;;;;;;;;;4971776;28;20045;-67
2023/12/25 00:19:41;;;;;;;1.25;0.47;;;;;;;;;;4960236;28;20034;-68
2023/12/25 00:22:07;;;;;;;0.00;0.00;;;;;;;;;;4951660;28;20043;-67
2023/12/25 00:24:33;;;;;;;0.63;0.15;;;;;;;;;;4959953;28;20141;-68
2023/12/25 00:26:59;;;;;;;1.00;0.40;;;;;;;;;;4970466;28;21080;-67
2023/12/25 00:29:25;;;;;;;1.05;0.50;;;;;;;;;;4973089;28;20045;-68
2023/12/25 00:31:51;;;;;;;0.05;0.05;;;;;;;;;;4972506;28;20058;-67
2023/12/25 00:34:17;;;;;;;2.10;0.47;;;;;;;;;;4972721;28;20398;-67
2023/12/25 00:36:43;;;;;;;3.05;0.45;;;;;;;;;;4974274;28;20038;-67
2023/12/25 00:39:09;;;;;;;0.60;0.60;;;;;;;;;;4974242;28;20163;-68
2023/12/25 00:41:35;;;;;;;0.10;0.10;;;;;;;;;;4970056;28;20514;-69
2023/12/25 00:44:02;;;;;;;0.57;0.52;;;;;;;;;;4972932;28;20111;-67
2023/12/25 00:46:28;;;;;;;0.75;0.20;;;;;;;;;;4966163;28;20038;-66
2023/12/25 00:48:54;;;;;;;0.15;0.15;;;;;;;;;;4975896;28;20050;-68
2023/12/25 00:51:20;;;;;;;0.40;0.40;;;;;;;;;;4969738;28;20092;-67
2023/12/25 00:53:46;;;;;;;0.50;0.43;;;;;;;;;;4971156;28;20145;-68
2023/12/25 00:56:12;;;;;;;0.20;0.20;;;;;;;;;;4986812;28;20511;-66
2023/12/25 00:58:38;;;;;;;1.08;0.28;;;;;;;;;;4974427;28;20105;-66
2023/12/25 01:01:04;;;;;;;0.60;0.47;;;;;;;;;;4976236;28;20756;-67
2023/12/25 01:03:30;;;;;;;0.00;0.00;;;;;;;;;;4976467;28;20431;-68
2023/12/25 01:05:56;;;;;;;0.80;0.45;;;;;;;;;;4969665;28;20042;-67
2023/12/25 01:08:22;;;;;;;0.00;0.00;;;;;;;;;;4971930;28;20038;-67
2023/12/25 01:10:48;;;;;;;0.03;0.03;;;;;;;;;;4972917;28;20692;-66
2023/12/25 01:13:14;;;;;;;0.25;0.10;;;;;;;;;;4974279;28;20818;-67
2023/12/25 01:15:39;;;;;;;0.52;0.38;;;;;;;;;;4978422;28;20034;-67
2023/12/25 01:18:05;;;;;;;0.38;0.38;;;;;;;;;;4977114;28;20042;-67
2023/12/25 01:20:31;;;;;;;0.30;0.10;;;;;;;;;;4974554;28;20030;-67
2023/12/25 01:22:57;;;;;;;0.00;0.00;;;;;;;;;;4974003;28;20538;-68
2023/12/25 01:25:23;;;;;;;0.00;0.00;;;;;;;;;;4967236;28;20129;-67
2023/12/25 01:27:49;;;;;;;0.77;0.65;;;;;;;;;;4974581;28;20038;-69
2023/12/25 01:30:15;;;;;;;0.63;0.47;;;;;;;;;;4973924;28;20050;-67
2023/12/25 01:32:41;;;;;;;0.10;0.10;;;;;;;;;;4974527;28;20109;-66
2023/12/25 01:35:07;;;;;;;0.47;0.25;;;;;;;;;;4963960;28;20034;-68
2023/12/25 01:37:33;;;;;;;0.52;0.50;;;;;;;;;;4967833;28;21788;-66
2023/12/25 01:39:59;;;;;;;0.25;0.17;;;;;;;;;;4971207;28;20054;-67
2023/12/25 01:42:25;;;;;;;0.05;0.05;;;;;;;;;;4964339;28;20073;-67
2023/12/25 01:44:51;;;;;;;0.30;0.28;;;;;;;;;;4972822;28;20046;-67
2023/12/25 01:47:18;;;;;;;0.00;0.00;;;;;;;;;;4972610;28;20066;-67
2023/12/25 01:49:44;;;;;;;0.32;0.28;;;;;;;;;;4974455;28;20042;-68
2023/12/25 01:52:11;;;;;;;0.25;0.10;;;;;;;;;;4967812;28;20050;-68
2023/12/25 01:54:38;;;;;;;0.00;0.00;;;;;;;;;;4974047;28;20062;-68
2023/12/25 01:57:05;;;;;;;1.08;0.15;;;;;;;;;;4973657;28;21159;-66
2023/12/25 01:59:31;;;;;;;0.00;0.00;;;;;;;;;;4974078;28;20177;-67
2023/12/25 02:01:58;;;;;;;0.40;0.32;;;;;;;;;;4972566;28;20387;-67
2023/12/25 02:04:24;;;;;;;1.23;0.70;;;;;;;;;;4978072;28;20127;-67
2023/12/25 02:06:51;;;;;;;0.65;0.30;;;;;;;;;;4986888;28;20042;-67
2023/12/25 02:09:17;;;;;;;0.95;0.28;;;;;;;;;;4971563;28;20043;-67
2023/12/25 02:11:43;;;;;;;0.00;0.00;;;;;;;;;;4975444;28;20038;-68
2023/12/25 02:14:10;;;;;;;0.10;0.10;;;;;;;;;;4970160;28;20046;-68
2023/12/25 02:16:38;;;;;;;0.35;0.35;;;;;;;;;;4974548;28;20449;-67
2023/12/25 02:19:06;;;;;;;0.17;0.15;;;;;;;;;;4974313;28;20038;-68
2023/12/25 02:21:32;;;;;;;0.52;0.45;;;;;;;;;;4972704;28;20053;-68
2023/12/25 02:24:00;;;;;;;0.88;0.47;;;;;;;;;;4974100;28;20046;-68
2023/12/25 02:26:26;;;;;;;0.17;0.17;;;;;;;;;;4971293;28;20048;-67
2023/12/25 02:28:52;;;;;;;0.00;0.00;;;;;;;;;;4972772;28;20138;-67
2023/12/25 02:31:18;;;;;;;0.20;0.20;;;;;;;;;;4974932;28;20099;-67
2023/12/25 02:33:44;;;;;;;0.00;0.00;;;;;;;;;;4975400;28;20039;-66
2023/12/25 02:36:10;;;;;;;0.10;0.08;;;;;;;;;;4972777;28;20053;-69
2023/12/25 02:38:36;;;;;;;0.10;0.10;;;;;;;;;;4974210;28;20047;-67
2023/12/25 02:41:02;;;;;;;0.73;0.20;;;;;;;;;;4972193;28;20034;-68
2023/12/25 02:43:28;;;;;;;0.38;0.38;;;;;;;;;;4977662;28;20127;-68
2023/12/25 02:45:53;;;;;;;1.10;0.52;;;;;;;;;;4977323;28;20598;-72
2023/12/25 02:48:20;;;;;;;0.70;0.13;;;;;;;;;;4977811;28;20065;-71
2023/12/25 02:50:46;;;;;;;0.00;0.00;;;;;;;;;;4977579;28;20044;-72
2023/12/25 02:53:12;;;;;;;0.25;0.25;;;;;;;;;;4977691;28;20031;-71
2023/12/25 02:55:39;;;;;;;0.10;0.10;;;;;;;;;;4990971;28;20078;-72
2023/12/25 02:58:05;;;;;;;2.70;0.10;;;;;;;;;;4972842;28;20756;-73
2023/12/25 03:00:31;;;;;;;0.00;0.00;;;;;;;;;;4976590;28;20042;-72
2023/12/25 03:02:57;;;;;;;0.70;0.32;;;;;;;;;;4973362;28;20085;-71
2023/12/25 03:05:22;;;;;;;0.25;0.20;;;;;;;;;;4967486;28;20038;-73
2023/12/25 03:07:48;;;;;;;0.00;0.00;;;;;;;;;;4977161;28;20914;-72
2023/12/25 03:10:14;;;;;;;0.00;0.00;;;;;;;;;;4976639;28;20742;-73
2023/12/25 03:12:40;;;;;;;0.32;0.32;;;;;;;;;;4978243;28;20041;-72
2023/12/25 03:15:07;;;;;;;0.00;0.00;;;;;;;;;;4977126;28;20034;-71
2023/12/25 03:17:33;;;;;;;0.30;0.30;;;;;;;;;;4976277;28;20085;-73
2023/12/25 03:19:59;;;;;;;0.10;0.10;;;;;;;;;;4979235;28;20046;-72
2023/12/25 03:22:25;;;;;;;0.00;0.00;;;;;;;;;;4976216;28;20038;-71
2023/12/25 03:24:51;;;;;;;0.00;0.00;;;;;;;;;;4977472;28;20038;-73
2023/12/25 03:27:17;;;;;;;0.00;0.00;;;;;;;;;;4972536;28;20034;-71
2023/12/25 03:29:43;;;;;;;3.30;0.52;;;;;;;;;;4976232;28;20034;-73
2023/12/25 03:32:09;;;;;;;0.63;0.28;;;;;;;;;;4975627;28;20046;-74
2023/12/25 03:34:44;;;;;;;0.63;0.15;;;;;;;;;;4976990;28;20065;-73
2023/12/25 03:37:10;;;;;;;0.00;0.00;;;;;;;;;;4975977;28;20039;-73
2023/12/25 03:39:36;;;;;;;1.88;0.50;;;;;;;;;;4975700;28;20091;-73
2023/12/25 03:42:02;;;;;;;0.10;0.10;;;;;;;;;;4975135;28;20042;-72
2023/12/25 03:44:28;;;;;;;0.20;0.15;;;;;;;;;;4978445;28;20129;-72
2023/12/25 03:46:54;;;;;;;0.10;0.10;;;;;;;;;;4974316;28;20477;-71
2023/12/25 03:49:20;;;;;;;0.28;0.20;;;;;;;;;;4975464;28;20814;-71
2023/12/25 03:51:46;;;;;;;0.00;0.00;;;;;;;;;;4972791;28;20054;-72
2023/12/25 03:54:13;;;;;;;0.95;0.30;;;;;;;;;;4975073;28;20474;-71
2023/12/25 03:56:40;;;;;;;1.73;0.28;;;;;;;;;;4974651;28;20062;-71
2023/12/25 03:59:06;;;;;;;0.20;0.20;;;;;;;;;;4974780;28;20089;-73
2023/12/25 04:01:38;;;;;;;0.00;0.00;;;;;;;;;;4975850;28;20062;-72
2023/12/25 04:04:04;;;;;;;0.00;0.00;;;;;;;;;;4976750;28;20720;-73
2023/12/25 04:06:30;;;;;;;0.10;0.10;;;;;;;;;;4976452;28;20577;-71
2023/12/25 04:08:56;;;;;;;0.15;0.08;;;;;;;;;;4978671;28;20097;-73
2023/12/25 04:11:23;;;;;;;0.38;0.20;;;;;;;;;;4986678;28;20502;-73
2023/12/25 04:13:53;;;;;;;0.00;0.00;;;;;;;;;;4978560;28;20506;-71
2023/12/25 04:16:27;;;;;;;0.10;0.10;;;;;;;;;;4974705;28;20038;-71
2023/12/25 04:18:53;;;;;;;;;;;12.10;99.90;;;;;;4980582;28;20157;-73
2023/12/25 04:21:21;;;;;;;0.38;0.32;;;12.30;99.90;;;;;;4975423;28;19928;-72
2023/12/25 04:23:48;;;;;;;0.45;0.30;;;12.20;99.90;;;;;;4976093;28;20057;-72
2023/12/25 04:26:13;;;;;;;0.15;0.15;;;12.20;99.90;;;;;;4974028;28;20038;-73
2023/12/25 04:28:39;;;;;;;0.25;0.25;;;12.20;99.90;;;;;;4976743;28;20742;-71
2023/12/25 04:31:04;;;;;;;1.35;0.75;;;12.20;99.90;;;;;;4973093;28;20049;-70
2023/12/25 04:33:30;;;;;;;0.08;0.08;;;12.30;99.90;;;;;;4975346;28;20038;-71
2023/12/25 04:35:55;;;;;;;0.00;0.00;;;12.20;99.90;;;;;;4977073;28;20108;-72
2023/12/25 04:38:21;;;;;;;0.65;0.65;;;12.20;99.90;;;;;;4976817;28;20034;-72
2023/12/25 04:40:46;;;;;;;0.32;0.20;;;12.20;99.90;;;;;;4975331;28;20065;-71
2023/12/25 04:43:12;;;;;;;0.30;0.20;;;12.20;99.90;;;;;;4975779;28;20105;-73
2023/12/25 04:45:38;;;;;;;0.00;0.00;;;12.20;99.90;;;;;;4976777;28;20042;-71
2023/12/25 04:48:04;;;;;;;0.00;0.00;;;12.20;99.90;;;;;;4976921;28;20038;-73
2023/12/25 04:50:29;;;;;;;0.15;0.10;;;12.10;99.90;;;;;;4979380;28;20533;-72
2023/12/25 04:52:55;;;;;;;0.38;0.30;;;12.10;99.90;;;;;;4974818;28;20039;-71
2023/12/25 04:55:20;;;;;;;0.00;0.00;;;12.00;99.90;;;;;;4974289;28;20100;-72
2023/12/25 04:57:46;;;;;;;0.10;0.10;;;12.00;99.90;;;;;;4975803;28;20030;-73
2023/12/25 05:00:12;;;;;;;0.00;0.00;;;12.00;99.90;;;;;;4974503;28;20057;-71
2023/12/25 05:02:37;;;;;;;0.00;0.00;;;12.10;99.90;;;;;;4974770;28;20050;-71
2023/12/25 05:05:03;;;;;;;0.00;0.00;;;12.10;99.90;;;;;;4974082;28;20743;-72
2023/12/25 05:07:29;;;;;;;0.03;0.03;;;12.10;99.90;;;;;;4973887;28;20735;-72
2023/12/25 05:09:54;;;;;;;0.00;0.00;;;12.10;99.90;;;;;;4975254;28;20046;-71
2023/12/25 05:12:20;;;;;;;0.38;0.00;;;12.10;99.90;;;;;;4986185;28;20045;-72
2023/12/25 05:14:46;;;;;;;0.00;0.00;;;12.00;99.90;;;;;;4980150;28;20133;-73
2023/12/25 05:17:12;;;;;;;0.10;0.00;;;12.10;99.90;;;;;;4973616;28;20506;-70
2023/12/25 05:19:37;;;;;;;0.10;0.00;;;12.00;99.90;;;;;;4976386;28;20042;-73
2023/12/25 05:22:05;;;;;;;0.00;0.00;;;12.00;99.90;;;;;;4971836;28;20038;-72
2023/12/25 05:24:31;;;;;;;0.00;0.00;;;12.00;99.90;;;;;;4973771;28;20042;-72
2023/12/25 05:26:56;;;;;;;0.00;0.00;;;12.00;99.90;;;;;;4973984;28;20045;-72
2023/12/25 05:29:22;;;;;;;0.00;0.00;;;12.10;99.90;;;;;;4974465;28;20049;-72
2023/12/25 05:31:47;;;;;;;0.00;0.00;;;12.00;99.90;;;;;;4974158;28;20046;-72
2023/12/25 05:34:13;;;;;;;0.00;0.00;;;12.00;99.90;;;;;;4974613;28;20038;-72
2023/12/25 05:36:38;;;;;;;0.00;0.00;;;12.00;99.90;;;;;;4974838;28;20061;-72
2023/12/25 05:39:04;;;;;;;0.10;0.00;;;12.10;99.90;;;;;;4975947;28;20050;-71
2023/12/25 05:41:30;;;;;;;0.00;0.00;;;12.00;99.90;;;;;;4976257;28;20066;-71
2023/12/25 05:43:55;;;;;;;0.00;0.00;;;12.00;99.90;;;;;;4976341;28;20026;-73
2023/12/25 05:46:21;;;;;;;0.00;0.00;;;11.90;99.90;;;;;;4974885;28;20042;-73
2023/12/25 05:48:46;;;;;;;0.10;0.10;;;11.90;99.90;;;;;;4976381;28;20034;-73
2023/12/25 05:51:12;;;;;;;0.00;0.00;;;12.00;99.90;;;;;;4977410;28;20042;-73
2023/12/25 05:53:37;;;;;;;0.00;0.00;;;12.00;99.90;;;;;;4973860;28;20141;-71
2023/12/25 05:56:03;;;;;;;0.10;0.00;;;12.00;99.90;;;;;;4974375;28;20038;-68
2023/12/25 05:58:29;;;;;;;0.00;0.00;;;11.90;99.90;;;;;;4975039;28;20930;-69
2023/12/25 06:00:55;;;;;;;0.05;0.05;;;11.90;99.90;;;;;;4974035;28;20046;-69
2023/12/25 06:03:20;;;;;;;0.25;0.10;;;11.90;99.90;;;;;;4972978;28;20947;-67
2023/12/25 06:05:46;;;;;;;0.00;0.00;;;11.90;99.90;;;;;;4973285;28;20034;-67
2023/12/25 06:08:11;;;;;;;0.03;0.03;;;11.90;99.90;;;;;;4972510;28;20473;-67
2023/12/25 06:10:37;;;;;;;0.10;0.10;;;11.90;99.90;;;;;;4976058;28;20375;-67
2023/12/25 06:13:03;;;;;;;0.00;0.00;;;11.90;99.90;;;;;;4977203;28;20434;-67
2023/12/25 06:15:28;;;;;;;0.00;0.00;;;11.90;99.90;;;;;;4977223;28;20324;-67
2023/12/25 06:17:54;;;;;;;2.63;0.43;;;11.90;99.90;;;;;;4981489;28;20460;-69
2023/12/25 06:20:20;;;;;;;0.00;0.00;;;12.00;99.90;;;;;;4981214;28;21041;-67
2023/12/25 06:22:46;;;;;;;0.00;0.00;;;11.90;99.90;;;;;;4976958;28;20031;-67
2023/12/25 06:25:12;;;;;;;0.10;0.10;;;11.90;99.90;;;;;;4977932;28;20038;-67
2023/12/25 06:27:37;;;;;;;0.25;0.25;;;11.90;99.90;;;;;;4978542;28;20058;-67
2023/12/25 06:30:04;;;;;;;0.20;0.10;;;11.90;99.90;;;;;;4977930;28;20168;-67
2023/12/25 06:32:30;;;;;;;0.00;0.00;;;11.90;99.90;;;;;;4978040;28;20038;-68
2023/12/25 06:34:55;;;;;;;0.20;0.10;;;11.90;99.90;;;;;;4978726;28;20053;-66
2023/12/25 06:37:21;;;;;;;0.08;0.08;;;12.00;99.90;;;;;;4978042;28;20042;-68
2023/12/25 06:39:47;;;;;;;0.00;0.00;;;12.00;99.90;;;;;;4978167;28;20151;-66
2023/12/25 06:42:12;;;;;;;0.00;0.00;;;11.90;99.90;;;;;;4977993;28;20046;-66
2023/12/25 06:44:39;;;;;;;0.08;0.00;;;12.00;99.90;;;;;;4979737;28;20038;-67
2023/12/25 06:47:05;;;;;;;0.20;0.15;;;11.90;99.90;;;;;;4978525;28;20034;-68
2023/12/25 06:49:31;;;;;;;0.20;0.20;;;11.90;99.90;;;;;;4981611;28;20050;-69
2023/12/25 06:51:56;;;;;;;0.10;0.10;;;11.90;99.90;;;;;;4978447;28;20030;-67
2023/12/25 06:54:22;;;;;;;1.75;0.00;;;12.00;99.90;;;;;;4976650;28;20038;-67
2023/12/25 06:56:48;;;;;;;0.00;0.00;;;11.90;99.90;;;;;;4979085;28;20046;-67
2023/12/25 06:59:14;;;;;;;0.40;0.40;;;12.00;99.90;;;;;;4978209;28;20043;-68
2023/12/25 07:01:39;;;;;;;0.93;0.20;;;12.00;99.90;;;;;;4976416;28;20073;-68
2023/12/25 07:04:06;;;;;;;0.00;0.00;;;11.90;99.90;;;;;;4973157;28;20042;-68
2023/12/25 07:06:32;;;;;;;0.00;0.00;;;12.00;99.90;;;;;;4976983;28;20042;-72
2023/12/25 07:08:58;;;;;;;0.00;0.00;;;11.90;99.90;;;;;;4976380;28;20041;-71
2023/12/25 07:11:23;;;;;;;0.17;0.17;;;11.90;99.90;;;;;;4975966;28;20042;-72
2023/12/25 07:13:49;;;;;;;0.00;0.00;;;12.00;99.90;;;;;;4981123;28;20804;-72
2023/12/25 07:16:24;;;;;;;0.10;0.10;;;11.90;99.90;;;;;;4975117;28;20046;-71
2023/12/25 07:18:51;;;;;;;0.05;0.05;;;11.90;99.90;;;;;;4983888;28;20042;-71
2023/12/25 07:21:17;;;;;;;0.17;0.10;;;12.00;99.90;;;;;;4981347;28;20513;-72
2023/12/25 07:23:42;;;;;;;0.00;0.00;;;12.00;99.90;;;;;;4977961;28;20153;-73
2023/12/25 07:26:08;;;;;;;0.20;0.20;;;12.00;99.90;;;;;;4975070;28;20414;-71
2023/12/25 07:28:34;;;;;;;0.10;0.10;;;12.00;99.90;;;;;;4978176;28;20451;-73
2023/12/25 07:31:01;;;;;;;0.00;0.00;;;12.00;99.90;;;;;;4977552;28;20537;-70
2023/12/25 07:33:27;;;;;;;0.70;0.35;;;12.00;99.90;;;;;;4976453;28;20125;-72
2023/12/25 07:35:53;;;;;;;0.00;0.00;;;12.00;99.90;;;;;;4976465;28;20470;-72
2023/12/25 07:38:19;;;;;;;0.35;0.35;;;12.00;99.90;;;;;;4977151;28;20196;-73
2023/12/25 07:40:44;;;;;;;0.55;0.10;;;12.10;99.90;;;;;;4977260;28;20050;-73
2023/12/25 07:43:10;;;;;;;0.00;0.00;;;12.00;99.90;;;;;;4977020;28;20042;-73
2023/12/25 07:45:38;;;;;;;0.00;0.00;;;12.00;99.90;;;;;;4982069;28;20522;-67
2023/12/25 07:48:04;;;;;;;4.18;0.25;;;12.00;99.90;;;;;;4979973;28;20069;-67
2023/12/25 07:50:29;;;;;;;0.00;0.00;;;12.10;99.90;;;;;;4982372;28;20482;-68
2023/12/25 07:52:55;;;;;;;0.00;0.00;;;12.00;99.90;;;;;;4977889;28;20133;-68
2023/12/25 07:55:20;;;;;;;1.15;0.45;;;12.10;99.90;;;;;;4977480;28;20041;-68
2023/12/25 07:57:46;;;;;;;0.28;0.25;;;12.00;99.90;;;;;;4974331;28;20117;-67
2023/12/25 08:00:12;;;;;;;0.17;0.10;;;12.10;99.90;;;;;;4985702;28;20503;-68
2023/12/25 08:02:38;;;;;;;0.35;0.17;;;12.10;99.90;;;;;;4985175;28;20540;-68
2023/12/25 08:05:05;;;;;;;0.95;0.70;;;12.10;99.90;;;;;;4978534;28;20540;-68
2023/12/25 08:07:30;;;;;;;0.00;0.00;;;12.00;99.90;;;;;;4990407;28;20374;-66
2023/12/25 08:09:56;;;;;;;0.00;0.00;;;12.10;99.90;;;;;;4987248;28;20489;-67
2023/12/25 08:12:21;;;;;;;0.45;0.15;;;12.10;99.90;;;;;;4978778;28;20791;-68
2023/12/25 08:14:47;;;;;;;0.00;0.00;;;12.10;99.90;;;;;;4974975;28;20528;-71
2023/12/25 08:17:13;;;;;;;0.00;0.00;;;12.20;99.90;;;;;;4985282;28;20034;-72
2023/12/25 08:19:38;;;;;;;0.00;0.00;;;12.10;99.90;;;;;;4987475;28;20130;-71
2023/12/25 08:22:04;;;;;;;0.15;0.10;;;12.10;99.90;;;;;;4984731;28;20104;-71
2023/12/25 08:24:29;;;;;;;2.22;1.85;;;12.10;99.90;;;;;;4987133;28;20490;-73
2023/12/25 08:26:55;;;;;;;0.00;0.00;;;12.20;99.90;;;;;;4982843;28;20039;-71
2023/12/25 08:29:20;;;;;;;0.00;0.00;;;12.20;99.90;;;;;;4982851;28;20058;-72
2023/12/25 08:31:46;;;;;;;0.98;0.57;;;12.20;99.90;;;;;;4979347;28;20038;-72
2023/12/25 08:34:12;;;;;;;0.00;0.00;;;12.10;99.90;;;;;;4971885;28;20068;-71
2023/12/25 08:36:37;;;;;;;0.22;0.17;;;12.10;99.90;;;;;;4983651;28;20035;-71
2023/12/25 08:39:04;;;;;;;0.20;0.20;;;12.20;99.90;;;;;;4995765;28;20127;-71
2023/12/25 08:41:30;;;;;;;0.10;0.10;;;12.20;99.90;;;;;;4984275;28;20074;-71
2023/12/25 08:43:56;;;;;;;0.08;0.08;;;12.20;99.90;;;;;;4986515;28;20257;-72
2023/12/25 08:46:21;;;;;;;0.00;0.00;;;12.20;99.90;;;;;;4985936;28;20042;-70
2023/12/25 08:48:48;;;;;;;0.00;0.00;;;12.30;99.90;;;;;;4985413;28;20042;-73
2023/12/25 08:51:14;;;;;;;0.00;0.00;;;12.30;99.90;;;;;;4986310;28;20038;-71
2023/12/25 08:53:39;;;;;;;0.10;0.10;;;12.30;99.90;;;;;;4985404;28;20042;-71
2023/12/25 08:56:05;;;;;;;0.00;0.00;;;12.30;99.90;;;;;;4985159;28;20034;-66
2023/12/25 08:58:31;;;;;;;0.00;0.00;;;12.30;99.90;;;;;;4987887;28;20053;-67
2023/12/25 09:00:56;;;;;;;0.00;0.00;;;12.30;99.90;;;;;;4983880;28;20062;-68
2023/12/25 09:03:22;;;;;;;0.25;0.05;;;12.30;99.90;;;;;;4984300;28;20073;-67
2023/12/25 09:05:47;;;;;;;0.20;0.20;;;12.30;99.90;;;;;;4983874;28;20538;-68
2023/12/25 09:08:13;;;;;;;0.00;0.00;;;12.30;99.90;;;;;;4982499;28;20427;-68
2023/12/25 09:10:38;;;;;;;0.20;0.10;;;12.30;99.90;;;;;;4987254;28;20742;-67
2023/12/25 09:13:04;;;;;;;0.00;0.00;;;12.30;99.90;;;;;;4985068;28;20030;-66
2023/12/25 09:15:29;;;;;;;0.30;0.10;;;12.20;99.90;;;;;;4981026;28;20113;-67
2023/12/25 09:17:55;;;;;;;0.00;0.00;;;12.20;99.90;;;;;;4988152;28;20038;-67
2023/12/25 09:20:21;;;;;;;0.00;0.00;;;12.20;99.90;;;;;;4984329;28;20129;-67
2023/12/25 09:22:47;;;;;;;0.00;0.00;;;12.20;99.90;;;;;;4983955;28;20391;-67
2023/12/25 09:25:13;;;;;;;0.80;0.43;;;12.30;99.90;;;;;;4990424;28;20034;-68
2023/12/25 09:27:38;;;;;;;0.00;0.00;;;12.30;99.90;;;;;;4978936;28;20034;-68
2023/12/25 09:30:04;;;;;;;0.00;0.00;;;12.20;99.90;;;;;;4978817;28;21253;-66
2023/12/25 09:32:30;;;;;;;0.10;0.00;;;12.30;99.90;;;;;;4979256;28;20052;-66
2023/12/25 09:34:56;;;;;;;0.00;0.00;;;12.30;99.90;;;;;;4980164;28;20031;-72
2023/12/25 09:37:25;;;;;;;0.50;0.32;;;12.20;99.90;;;;;;4978031;28;20146;-73
2023/12/25 09:39:51;;;;;;;0.08;0.08;;;12.30;99.90;;;;;;4978239;28;20120;-72
2023/12/25 09:42:17;;;;;;;0.00;0.00;;;12.30;99.90;;;;;;4980828;28;20045;-73
2023/12/25 09:44:45;;;;;;;0.00;0.00;;;;;;;;;;4978170;28;20030;-67
2023/12/25 09:47:11;;;;;;;0.00;0.00;;;12.20;99.90;;;;;;4981543;28;20108;-67
2023/12/25 09:49:38;;;;;;;0.10;0.00;;;12.30;99.90;;;;;;4981614;28;20415;-67
2023/12/25 09:52:04;;;;;;;0.10;0.10;;;;;;;;;;4983512;28;20133;-66
2023/12/25 09:54:31;;;;;;;0.73;0.10;;;;;;;;;;4982145;28;20066;-67
2023/12/25 09:56:58;;;;;;;0.00;0.00;;;;;;;;;;4983306;28;20038;-68
2023/12/25 09:59:28;;;;;;;0.08;0.08;;;;;;;;;;4982984;28;20556;-69
2023/12/25 10:01:55;;;;;;;0.00;0.00;;;;;;;;;;4975386;28;20035;-68
2023/12/25 10:04:21;;;;;;;0.10;0.00;;;;;;;;;;4977282;28;20121;-67
2023/12/25 10:06:47;;;;;;;0.00;0.00;;;;;;;;;;4980183;28;20126;-69
2023/12/25 10:09:13;;;;;;;0.00;0.00;;;12.30;99.90;;;;;;4978352;28;20038;-69
2023/12/25 10:11:38;;;;;;;0.15;0.08;;;12.40;99.90;;;;;;4979093;28;20034;-69
2023/12/25 10:14:04;;;;;;;0.08;0.00;;;12.40;99.90;;;;;;4977834;28;21293;-67
2023/12/25 10:16:29;;;;;;;0.38;0.10;;;12.40;99.90;;;;;;4976426;28;20674;-68
2023/12/25 10:18:56;;;;;;;0.00;0.00;;;12.40;99.90;;;;;;4976568;28;20499;-69
2023/12/25 10:21:21;;;;;;;0.22;0.10;;;12.40;99.90;;;;;;4977929;28;20050;-67
2023/12/25 10:23:48;;;;;;;0.22;0.10;;;12.50;99.90;;;;;;4977910;28;20367;-67
2023/12/25 10:26:28;;;;;;;0.00;0.00;;;12.40;99.90;;;;;;4977590;28;20113;-67
2023/12/25 10:29:10;;;;;;;0.00;0.00;;;12.40;99.90;;;;;;4978181;28;20467;-68
2023/12/25 10:31:46;;;;;;;0.15;0.15;;;12.40;99.90;;;;;;4979814;28;20038;-67
2023/12/25 10:34:19;;;;;;;0.05;0.05;;;12.40;99.90;;;;;;4976036;28;20034;-68
2023/12/25 10:36:47;;;;;;;0.03;0.03;;;12.40;99.90;;;;;;4977246;28;20049;-69
2023/12/25 10:39:27;;;;;;;0.20;0.03;;;12.40;99.90;;;;;;4977349;28;20046;-67
2023/12/25 10:41:54;;;;;;;0.00;0.00;;;12.40;99.90;;;;;;4977348;28;20141;-67
2023/12/25 10:44:20;;;;;;;0.00;0.00;;;12.40;99.90;;;;;;4958246;28;20474;-68
2023/12/25 10:46:46;;;;;;;0.00;0.00;;;12.50;99.90;;;;;;4972804;28;20121;-68
2023/12/25 10:49:12;;;;;;;0.08;0.08;;;12.50;99.90;;;;;;4980109;28;20061;-68
2023/12/25 10:51:41;;;;;;;0.05;0.05;;;12.40;99.90;;;;;;4963914;28;20160;-69
2023/12/25 10:54:09;;;;;;;0.05;0.03;;;12.40;99.90;;;;;;4956873;28;20031;-67
2023/12/25 10:56:37;;;;;;;0.40;0.17;;;12.40;99.90;;;;;;4977021;28;22017;-67
2023/12/25 10:59:22;;;;;;;0.50;0.20;;;12.40;99.90;;;;;;4976265;28;20042;-69
2023/12/25 11:01:49;;;;;;;0.00;0.00;;;12.40;99.90;;;;;;4976207;28;20038;-68
2023/12/25 11:04:15;;;;;;;0.00;0.00;;;12.30;99.90;;;;;;4974464;28;20085;-67
2023/12/25 11:06:43;;;;;;;0.00;0.00;;;12.40;99.90;;;;;;4976171;28;20062;-69
2023/12/25 11:09:11;;;;;;;0.10;0.05;;;12.40;99.90;;;;;;4977146;28;20107;-69
2023/12/25 11:11:38;;;;;;;0.00;0.00;;;12.30;99.90;;;;;;4976412;28;20563;-69
2023/12/25 11:14:06;;;;;;;0.55;0.38;;;12.40;99.90;;;;;;4970694;28;20430;-67
2023/12/25 11:16:33;;;;;;;0.28;0.25;;;12.30;99.90;;;;;;4975996;28;20071;-67
2023/12/25 11:19:00;;;;;;;0.13;0.10;;;12.40;99.90;;;;;;4970190;28;20042;-69
2023/12/25 11:21:30;;;;;;;0.00;0.00;;;12.40;99.90;;;;;;4976151;28;20042;-68
2023/12/25 11:23:58;;;;;;;0.10;0.00;;;12.40;99.90;;;;;;4970006;28;20071;-67
2023/12/25 11:26:25;;;;;;;0.00;0.00;;;12.30;99.90;;;;;;4968397;28;20818;-69
2023/12/25 11:29:07;;;;;;;0.00;0.00;;;12.40;99.90;;;;;;4965804;28;20031;-67
2023/12/25 11:31:46;;;;;;;1.25;0.25;;;12.30;99.90;;;;;;4959620;28;20399;-68
2023/12/25 11:34:38;;;;;;;0.00;0.00;;;12.40;99.90;;;;;;4964088;28;20030;-68
2023/12/25 11:37:19;;;;;;;0.15;0.15;;;12.40;99.90;;;;;;4964276;28;20734;-68
2023/12/25 11:40:07;;;;;;;0.22;0.03;;;12.30;99.90;;;;;;4954821;28;20527;-69
2023/12/25 11:42:35;;;;;;;0.00;0.00;;;12.40;99.90;;;;;;4975264;28;20042;-67
2023/12/25 11:45:08;;;;;;;0.00;0.00;;;12.40;99.90;;;;;;4975186;28;20046;-75
2023/12/25 11:47:55;;;;;;;0.00;0.00;;;12.30;99.90;;;;;;4977442;28;20042;-73
2023/12/25 11:50:21;;;;;;;0.45;0.45;;;12.40;99.90;;;;;;4975320;28;20084;-74
2023/12/25 11:52:53;;;;;;;0.32;0.10;;;12.40;99.90;;;;;;4976216;28;20149;-72
2023/12/25 11:55:21;;;;;;;0.45;0.40;;;12.40;99.90;;;;;;4975231;28;20597;-68
2023/12/25 11:57:46;;;;;;;0.20;0.20;;;12.40;99.90;;;;;;4974643;28;20069;-69
2023/12/25 12:00:26;;;;;;;0.00;0.00;;;12.40;99.90;;;;;;4973439;28;20146;-69
2023/12/25 12:02:52;;;;;;;0.00;0.00;;;12.40;99.90;;;;;;4974937;28;20115;-67
2023/12/25 12:05:18;;;;;;;0.00;0.00;;;12.50;99.90;;;;;;4973954;28;20528;-72
2023/12/25 12:07:45;;;;;;;0.30;0.30;;;12.30;99.90;;;;;;4978995;28;20062;-73
2023/12/25 12:10:12;;;;;;;0.00;0.00;;;12.40;99.90;;;;;;4976661;28;20054;-73
2023/12/25 12:12:38;;;;;;;0.00;0.00;;;12.40;99.90;;;;;;4976150;28;20538;-73
2023/12/25 12:15:07;;;;;;;0.00;0.00;;;12.50;99.90;;;;;;4972513;28;20072;-74
2023/12/25 12:17:36;;;;;;;0.40;0.40;;;12.50;99.90;;;;;;4973928;28;20482;-73
2023/12/25 12:20:06;;;;;;;0.32;0.32;;;12.50;99.90;;;;;;4970641;28;20403;-74
2023/12/25 12:22:35;;;;;;;0.00;0.00;;;12.50;99.90;;;;;;4972655;28;20047;-73
2023/12/25 12:25:18;;;;;;;0.10;0.10;;;12.40;99.90;;;;;;4975120;28;20603;-72
2023/12/25 12:27:44;;;;;;;0.40;0.40;;;12.40;99.90;;;;;;4975688;28;20084;-74
2023/12/25 12:30:10;;;;;;;2.55;2.35;;;12.20;99.90;;;;;;4975589;28;20493;-73
2023/12/25 12:32:37;;;;;;;0.00;0.00;;;11.90;99.90;;;;;;4975964;28;20035;-74
2023/12/25 12:35:07;;;;;;;0.05;0.05;;;11.80;99.90;;;;;;4963897;28;20047;-74
2023/12/25 12:37:33;;;;;;;0.00;0.00;;;11.60;99.90;;;;;;4968959;28;20494;-74
2023/12/25 12:40:01;;;;;;;2.17;0.20;;;11.60;99.90;;;;;;4973703;28;20047;-72
2023/12/25 12:42:26;;;;;;;0.28;0.25;;;11.50;99.90;;;;;;4973695;28;20027;-74
2023/12/25 12:44:52;;;;;;;1.88;0.85;;;11.50;99.90;;;;;;4975791;28;20065;-73
2023/12/25 12:47:18;;;;;;;0.10;0.10;;;11.50;99.90;;;;;;4974047;28;20125;-72
2023/12/25 12:49:44;;;;;;;0.30;0.30;;;11.50;99.90;;;;;;4979379;28;20129;-74
2023/12/25 12:52:09;;;;;;;2.83;0.75;;;11.40;99.90;;;;;;4973564;28;20149;-72
2023/12/25 12:54:35;;;;;;;0.00;0.00;;;11.40;99.90;;;;;;4976507;28;20384;-73
2023/12/25 12:57:01;;;;;;;0.00;0.00;;;11.30;99.90;;;;;;4968555;28;20034;-74
2023/12/25 12:59:26;;;;;;;0.10;0.10;;;11.30;99.90;;;;;;4972764;28;20524;-73
2023/12/25 13:01:52;;;;;;;0.00;0.00;;;11.50;99.90;;;;;;4974720;28;20030;-74
2023/12/25 13:04:19;;;;;;;0.08;0.05;;;11.40;99.90;;;;;;4971142;28;20045;-72
2023/12/25 13:06:45;;;;;;;0.00;0.00;;;11.40;99.90;;;;;;4969018;28;20593;-74
2023/12/25 13:09:11;;;;;;;0.22;0.22;;;;;;;;;;4974187;28;20049;-73
2023/12/25 13:11:38;;;;;;;0.65;0.47;;;;;;;;;;4976547;28;20034;-73
2023/12/25 13:14:04;;;;;;;0.17;0.10;;;;;;;;;;4974916;28;20680;-73
2023/12/25 13:16:31;;;;;;;0.00;0.00;;;;;;;;;;4975956;28;20121;-69
2023/12/25 13:18:57;;;;;;;0.00;0.00;;;11.30;99.90;;;;;;4975379;28;20031;-69
2023/12/25 13:21:22;;;;;;;0.00;0.00;;;11.40;99.90;;;;;;4974058;28;20038;-68